createdAt,value
2023-05-14T00:00:04.192Z,99.90
2023-05-14T00:02:30.851Z,99.90
2023-05-14T00:04:58.537Z,99.90
2023-05-14T00:07:30.749Z,99.90
2023-05-14T00:09:57.918Z,99.90
2023-05-14T00:12:24.500Z,99.90
2023-05-14T00:14:50.996Z,99.90
2023-05-14T00:17:17.582Z,99.90
2023-05-14T00:19:44.234Z,99.90
2023-05-14T00:22:10.783Z,99.90
2023-05-14T00:24:37.352Z,99.90
2023-05-14T00:27:04.159Z,99.90
2023-05-14T00:29:30.718Z,99.90
2023-05-14T00:31:57.232Z,99.90
2023-05-14T00:34:24.279Z,99.90
2023-05-14T00:36:51.097Z,99.90
2023-05-14T00:39:17.611Z,99.90
2023-05-14T00:41:46.111Z,99.90
2023-05-14T00:44:12.655Z,99.90
2023-05-14T00:46:39.236Z,99.90
2023-05-14T00:49:05.726Z,99.90
2023-05-14T00:51:32.304Z,99.90
2023-05-14T00:53:58.818Z,99.90
2023-05-14T00:56:26.663Z,99.90
2023-05-14T00:58:53.202Z,99.90
2023-05-14T01:01:19.791Z,99.90
2023-05-14T01:03:46.530Z,99.90
2023-05-14T01:06:13.343Z,99.90
2023-05-14T01:09:01.379Z,99.90
2023-05-14T01:11:42.215Z,99.90
2023-05-14T01:14:21.130Z,99.90
2023-05-14T01:16:49.452Z,99.90
2023-05-14T01:19:22.556Z,99.90
2023-05-14T01:21:49.103Z,99.90
2023-05-14T01:24:15.605Z,99.90
2023-05-14T01:26:42.141Z,99.90
2023-05-14T01:29:13.680Z,99.90
2023-05-14T01:31:42.330Z,99.90
2023-05-14T01:34:11.585Z,99.90
2023-05-14T01:36:38.798Z,99.90
2023-05-14T01:39:05.719Z,99.90
2023-05-14T01:41:32.738Z,99.90
2023-05-14T01:43:59.320Z,99.90
2023-05-14T01:46:25.854Z,99.90
2023-05-14T01:48:52.471Z,99.90
2023-05-14T01:51:18.984Z,99.90
2023-05-14T01:53:45.514Z,99.90
2023-05-14T01:56:12.067Z,99.90
2023-05-14T01:58:38.561Z,99.90
2023-05-14T02:01:05.113Z,99.90
2023-05-14T02:03:31.639Z,99.90
2023-05-14T02:05:58.225Z,99.90
2023-05-14T02:08:24.857Z,99.90
2023-05-14T02:10:51.407Z,99.90
2023-05-14T02:13:17.948Z,99.90
2023-05-14T02:15:44.484Z,99.90
2023-05-14T02:18:11.040Z,99.90
2023-05-14T02:20:37.552Z,99.90
2023-05-14T02:23:04.130Z,99.90
2023-05-14T02:25:30.629Z,99.90
2023-05-14T02:27:57.131Z,99.90
2023-05-14T02:30:23.826Z,99.90
2023-05-14T02:32:50.684Z,99.90
2023-05-14T02:35:17.203Z,99.90
2023-05-14T02:37:43.735Z,99.90
2023-05-14T02:40:10.519Z,99.90
2023-05-14T02:42:37.022Z,1.00
2023-05-14T02:45:03.744Z,1.00
2023-05-14T02:47:30.316Z,1.00
2023-05-14T02:49:56.885Z,1.00
2023-05-14T02:52:23.422Z,1.00
2023-05-14T02:54:50.070Z,99.90
2023-05-14T02:57:16.586Z,1.00
2023-05-14T02:59:43.117Z,1.00
2023-05-14T03:02:10.083Z,1.00
2023-05-14T03:04:36.944Z,99.90
2023-05-14T03:07:07.175Z,99.90
2023-05-14T03:09:34.242Z,99.90
2023-05-14T03:14:52.509Z,1.00
2023-05-14T03:17:19.107Z,1.00
2023-05-14T03:19:45.718Z,1.00
2023-05-14T03:22:12.277Z,1.00
2023-05-14T03:24:39.980Z,1.00
2023-05-14T03:27:06.549Z,1.00
2023-05-14T03:29:33.088Z,1.00
2023-05-14T03:31:59.621Z,1.00
2023-05-14T03:34:26.128Z,99.90
2023-05-14T03:36:52.748Z,99.90
2023-05-14T03:39:19.827Z,99.90
2023-05-14T03:41:46.758Z,99.90
2023-05-14T03:44:13.500Z,99.90
2023-05-14T03:46:40.032Z,99.90
2023-05-14T03:49:10.482Z,1.00
2023-05-14T03:51:37.042Z,99.90
2023-05-14T03:54:04.137Z,99.90
2023-05-14T03:56:30.633Z,1.00
2023-05-14T03:58:57.163Z,99.90
2023-05-14T04:01:23.738Z,1.00
2023-05-14T04:03:50.473Z,1.00
2023-05-14T04:06:18.074Z,1.00
2023-05-14T04:08:44.660Z,99.90
2023-05-14T04:11:12.124Z,1.00
2023-05-14T04:13:38.734Z,99.90
2023-05-14T04:16:05.664Z,99.90
2023-05-14T04:18:35.258Z,99.90
2023-05-14T04:21:02.611Z,99.90
2023-05-14T04:23:29.409Z,99.90
2023-05-14T04:25:57.038Z,99.90
2023-05-14T04:28:23.569Z,99.90
2023-05-14T04:30:50.058Z,99.90
2023-05-14T04:33:16.855Z,99.90
2023-05-14T04:35:44.250Z,99.90
2023-05-14T04:38:11.366Z,99.90
2023-05-14T04:40:37.876Z,99.90
2023-05-14T04:43:04.432Z,99.90
2023-05-14T04:45:34.180Z,99.90
2023-05-14T04:48:01.102Z,99.90
2023-05-14T04:50:27.801Z,99.90
2023-05-14T04:52:55.733Z,99.90
2023-05-14T04:55:22.752Z,99.90
2023-05-14T04:57:49.255Z,99.90
2023-05-14T05:00:17.326Z,99.90
2023-05-14T05:02:43.956Z,99.90
2023-05-14T05:05:10.657Z,99.90
2023-05-14T05:07:37.197Z,99.90
2023-05-14T05:10:04.325Z,99.90
2023-05-14T05:12:30.890Z,99.90
2023-05-14T05:14:57.659Z,99.90
2023-05-14T05:17:24.678Z,99.90
2023-05-14T05:19:51.289Z,99.90
2023-05-14T05:22:17.915Z,99.90
2023-05-14T05:24:44.481Z,99.90
2023-05-14T05:27:11.105Z,99.90
2023-05-14T05:29:37.835Z,99.90
2023-05-14T05:32:04.651Z,99.90
2023-05-14T05:34:31.365Z,99.90
2023-05-14T05:36:57.884Z,99.90
2023-05-14T05:39:24.410Z,99.90
2023-05-14T05:41:51.033Z,99.90
2023-05-14T05:44:17.681Z,99.90
2023-05-14T05:46:44.234Z,99.90
2023-05-14T05:49:10.889Z,99.90
2023-05-14T05:51:37.517Z,99.90
2023-05-14T05:54:04.039Z,99.90
2023-05-14T05:56:30.763Z,99.90
2023-05-14T05:58:57.534Z,99.90
2023-05-14T06:01:24.145Z,99.90
2023-05-14T06:03:50.694Z,99.90
2023-05-14T06:06:17.207Z,99.90
2023-05-14T06:08:43.723Z,99.90
2023-05-14T06:11:10.246Z,99.90
2023-05-14T06:13:37.758Z,99.90
2023-05-14T06:16:04.418Z,99.90
2023-05-14T06:18:31.019Z,99.90
2023-05-14T06:20:58.005Z,99.90
2023-05-14T06:23:24.517Z,99.90
2023-05-14T06:25:51.136Z,99.90
2023-05-14T06:28:17.712Z,99.90
2023-05-14T06:30:44.219Z,99.90
2023-05-14T06:33:12.859Z,99.90
2023-05-14T06:35:39.616Z,99.90
2023-05-14T06:38:06.106Z,99.90
2023-05-14T06:40:32.635Z,99.90
2023-05-14T06:42:59.154Z,99.90
2023-05-14T06:45:25.694Z,99.90
2023-05-14T06:47:52.323Z,99.90
2023-05-14T06:50:19.296Z,99.90
2023-05-14T06:52:46.552Z,99.90
2023-05-14T06:55:13.052Z,99.90
2023-05-14T06:57:40.771Z,99.90
2023-05-14T07:00:08.461Z,99.90
2023-05-14T07:02:35.452Z,99.90
2023-05-14T07:05:02.311Z,99.90
2023-05-14T07:07:28.809Z,99.90
2023-05-14T07:10:10.271Z,99.90
2023-05-14T07:12:37.330Z,99.90
2023-05-14T07:15:04.271Z,99.90
2023-05-14T07:17:30.913Z,99.90
2023-05-14T07:19:57.617Z,99.90
2023-05-14T07:22:24.186Z,99.90
2023-05-14T07:24:50.748Z,99.90
2023-05-14T07:27:22.312Z,99.90
2023-05-14T07:29:51.461Z,99.90
2023-05-14T07:32:18.032Z,99.90
2023-05-14T07:34:45.269Z,99.90
2023-05-14T07:37:17.278Z,99.90
2023-05-14T07:39:43.903Z,99.90
2023-05-14T07:42:11.704Z,99.90
2023-05-14T07:44:40.754Z,99.90
2023-05-14T07:47:09.048Z,99.90
2023-05-14T07:49:42.216Z,99.90
2023-05-14T07:52:10.012Z,99.90
2023-05-14T07:55:01.142Z,99.90
2023-05-14T07:57:27.744Z,99.90
2023-05-14T07:59:54.309Z,99.90
2023-05-14T08:02:21.029Z,99.90
2023-05-14T08:04:47.628Z,99.90
2023-05-14T08:07:14.128Z,99.90
2023-05-14T08:09:40.729Z,99.90
2023-05-14T08:12:07.579Z,99.90
2023-05-14T08:14:34.295Z,99.90
2023-05-14T08:17:00.849Z,99.90
2023-05-14T08:19:27.812Z,99.90
2023-05-14T08:21:54.464Z,99.90
2023-05-14T08:24:21.368Z,99.90
2023-05-14T08:26:48.012Z,99.90
2023-05-14T08:29:16.280Z,99.90
2023-05-14T08:31:43.720Z,99.90
2023-05-14T08:34:10.244Z,99.90
2023-05-14T08:36:36.797Z,99.90
2023-05-14T08:39:03.399Z,99.90
2023-05-14T08:41:29.988Z,99.90
2023-05-14T08:44:02.778Z,99.90
2023-05-14T08:46:30.187Z,99.90
2023-05-14T08:49:08.893Z,99.90
2023-05-14T08:51:35.743Z,99.90
2023-05-14T08:54:02.562Z,99.90
2023-05-14T08:56:32.047Z,99.90
2023-05-14T08:58:58.655Z,99.90
2023-05-14T09:01:25.711Z,99.90
2023-05-14T09:03:54.439Z,99.90
2023-05-14T09:06:22.540Z,99.90
2023-05-14T09:08:49.206Z,99.90
2023-05-14T09:11:15.732Z,99.90
2023-05-14T09:13:42.246Z,99.90
2023-05-14T09:16:08.802Z,99.90
2023-05-14T09:18:35.939Z,99.90
2023-05-14T09:21:02.718Z,99.90
2023-05-14T09:23:32.070Z,99.90
2023-05-14T09:25:58.607Z,99.90
2023-05-14T09:28:27.970Z,99.90
2023-05-14T09:30:54.731Z,99.90
2023-05-14T09:33:28.346Z,99.90
2023-05-14T09:35:57.667Z,99.90
2023-05-14T09:38:28.654Z,99.90
2023-05-14T09:40:55.518Z,99.90
2023-05-14T09:43:22.065Z,99.90
2023-05-14T09:45:48.717Z,99.90
2023-05-14T09:48:15.765Z,99.90
2023-05-14T09:50:42.876Z,99.90
2023-05-14T09:53:09.912Z,99.90
2023-05-14T09:55:36.888Z,99.90
2023-05-14T09:58:03.966Z,99.90
2023-05-14T10:00:31.927Z,99.90
2023-05-14T10:02:58.643Z,99.90
2023-05-14T10:05:26.750Z,99.90
2023-05-14T10:07:54.530Z,99.90
2023-05-14T10:10:24.058Z,99.90
2023-05-14T10:12:52.732Z,99.90
2023-05-14T10:15:40.030Z,99.90
2023-05-14T10:18:10.334Z,99.90
2023-05-14T10:20:38.096Z,99.90
2023-05-14T10:23:05.322Z,99.90
2023-05-14T10:25:32.030Z,99.90
2023-05-14T10:27:58.739Z,99.90
2023-05-14T10:30:25.929Z,99.90
2023-05-14T10:33:05.991Z,99.90
2023-05-14T10:35:51.754Z,99.90
2023-05-14T10:38:21.747Z,99.90
2023-05-14T10:40:48.361Z,99.90
2023-05-14T10:43:15.965Z,99.90
2023-05-14T10:45:43.633Z,99.90
2023-05-14T10:48:11.954Z,99.90
2023-05-14T10:50:38.587Z,99.90
2023-05-14T10:53:05.254Z,99.90
2023-05-14T10:55:31.774Z,99.90
2023-05-14T10:57:58.721Z,99.90
2023-05-14T11:00:25.776Z,99.90
2023-05-14T11:02:55.166Z,99.90
2023-05-14T11:05:21.709Z,99.90
2023-05-14T11:07:49.397Z,99.90
2023-05-14T11:10:16.982Z,99.90
2023-05-14T11:12:47.541Z,99.90
2023-05-14T11:15:15.703Z,99.90
2023-05-14T11:17:43.156Z,99.90
2023-05-14T11:20:12.917Z,99.90
2023-05-14T11:22:40.362Z,99.90
2023-05-14T11:25:07.411Z,99.90
2023-05-14T11:27:34.608Z,99.90
2023-05-14T11:30:01.453Z,99.90
2023-05-14T11:32:27.990Z,99.90
2023-05-14T11:34:54.572Z,99.90
2023-05-14T11:37:21.173Z,99.90
2023-05-14T11:39:54.341Z,99.90
2023-05-14T11:42:21.487Z,99.90
2023-05-14T11:44:49.039Z,99.90
2023-05-14T11:47:16.695Z,99.90
2023-05-14T11:49:43.235Z,99.90
2023-05-14T11:52:11.556Z,99.90
2023-05-14T11:54:38.248Z,99.90
2023-05-14T11:57:08.848Z,99.90
2023-05-14T11:59:35.439Z,99.90
2023-05-14T12:02:02.711Z,99.90
2023-05-14T12:04:29.524Z,99.90
2023-05-14T12:06:57.667Z,99.90
2023-05-14T12:09:24.201Z,99.90
2023-05-14T12:11:51.517Z,99.90
2023-05-14T12:14:21.939Z,99.90
2023-05-14T12:16:49.199Z,99.90
2023-05-14T12:19:16.305Z,99.90
2023-05-14T12:21:43.419Z,99.90
2023-05-14T12:24:13.597Z,99.90
2023-05-14T12:26:40.545Z,99.90
2023-05-14T12:29:07.093Z,99.90
2023-05-14T12:31:34.347Z,99.90
2023-05-14T12:34:00.917Z,99.90
2023-05-14T12:36:27.954Z,99.90
2023-05-14T12:41:52.943Z,99.90
2023-05-14T12:44:19.728Z,99.90
2023-05-14T12:46:46.404Z,99.90
2023-05-14T12:49:12.960Z,99.90
2023-05-14T12:51:39.796Z,99.90
2023-05-14T12:54:06.319Z,99.90
2023-05-14T12:56:32.940Z,99.90
2023-05-14T12:58:59.482Z,99.90
2023-05-14T13:01:26.102Z,99.90
2023-05-14T13:03:52.725Z,99.90
2023-05-14T13:06:19.420Z,99.90
2023-05-14T13:08:46.116Z,99.90
2023-05-14T13:11:12.676Z,99.90
2023-05-14T13:13:39.270Z,99.90
2023-05-14T13:16:06.045Z,99.90
2023-05-14T13:18:32.616Z,99.90
2023-05-14T13:20:59.203Z,99.90
2023-05-14T13:23:25.764Z,99.90
2023-05-14T13:25:52.392Z,99.90
2023-05-14T13:28:18.897Z,99.90
2023-05-14T13:31:03.366Z,99.90
2023-05-14T13:33:29.966Z,99.90
2023-05-14T13:35:56.629Z,99.90
2023-05-14T13:38:23.190Z,99.90
2023-05-14T13:40:49.705Z,99.90
2023-05-14T13:43:16.934Z,99.90
2023-05-14T13:45:43.569Z,99.90
2023-05-14T13:48:10.152Z,99.90
2023-05-14T13:50:36.694Z,99.90
2023-05-14T13:53:03.190Z,99.90
2023-05-14T13:55:29.724Z,99.90
2023-05-14T14:00:46.722Z,99.90
2023-05-14T14:03:13.272Z,99.90
2023-05-14T14:05:40.974Z,99.90
2023-05-14T14:08:22.004Z,99.90
2023-05-14T14:10:49.683Z,99.90
2023-05-14T14:13:16.306Z,99.90
2023-05-14T14:15:43.694Z,99.90
2023-05-14T14:18:10.382Z,99.90
2023-05-14T14:20:36.939Z,99.90
2023-05-14T14:23:05.464Z,99.90
2023-05-14T14:25:31.973Z,99.90
2023-05-14T14:27:58.521Z,99.90
2023-05-14T14:30:25.076Z,99.90
2023-05-14T14:32:51.641Z,99.90
2023-05-14T14:35:18.771Z,99.90
2023-05-14T14:37:48.993Z,99.90
2023-05-14T14:40:16.488Z,99.90
2023-05-14T14:42:43.592Z,99.90
2023-05-14T14:45:10.732Z,99.90
2023-05-14T14:47:37.289Z,99.90
2023-05-14T14:50:04.378Z,99.90
2023-05-14T14:52:31.159Z,99.90
2023-05-14T14:54:57.793Z,99.90
2023-05-14T14:57:24.357Z,99.90
2023-05-14T14:59:50.853Z,99.90
2023-05-14T15:02:17.553Z,99.90
2023-05-14T15:04:44.215Z,99.90
2023-05-14T15:07:11.133Z,99.90
2023-05-14T15:09:37.720Z,99.90
2023-05-14T15:12:04.382Z,99.90
2023-05-14T15:14:30.892Z,99.90
2023-05-14T15:16:57.407Z,99.90
2023-05-14T15:19:23.933Z,99.90
2023-05-14T15:21:50.491Z,99.90
2023-05-14T15:24:17.228Z,99.90
2023-05-14T15:26:43.722Z,99.90
2023-05-14T15:29:10.329Z,99.90
2023-05-14T15:31:36.965Z,99.90
2023-05-14T15:34:04.009Z,99.90
2023-05-14T15:36:30.813Z,99.90
2023-05-14T15:38:57.318Z,99.90
2023-05-14T15:41:25.454Z,99.90
2023-05-14T15:43:51.962Z,99.90
2023-05-14T15:46:18.550Z,99.90
2023-05-14T15:48:45.412Z,99.90
2023-05-14T15:51:12.158Z,1.00
2023-05-14T15:53:38.717Z,1.00
2023-05-14T15:56:05.473Z,1.00
2023-05-14T15:58:31.972Z,1.00
2023-05-14T16:00:58.581Z,80.00
2023-05-14T16:03:25.301Z,99.90
2023-05-14T16:05:52.049Z,1.00
2023-05-14T16:08:18.544Z,99.90
2023-05-14T16:10:45.029Z,7.50
2023-05-14T16:13:11.650Z,1.00
2023-05-14T16:15:39.233Z,1.00
2023-05-14T16:18:06.047Z,99.90
2023-05-14T16:20:32.632Z,99.90
2023-05-14T16:22:59.133Z,1.00
2023-05-14T16:25:25.681Z,99.90
2023-05-14T16:27:52.321Z,1.00
2023-05-14T16:30:18.828Z,1.00
2023-05-14T16:32:48.739Z,1.00
2023-05-14T16:35:16.576Z,1.00
2023-05-14T16:37:43.082Z,99.90
2023-05-14T16:40:11.608Z,99.90
2023-05-14T16:42:38.325Z,99.90
2023-05-14T16:45:05.052Z,1.00
2023-05-14T16:47:31.686Z,99.90
2023-05-14T16:49:58.552Z,1.00
2023-05-14T16:52:26.119Z,1.00
2023-05-14T16:54:52.674Z,1.00
2023-05-14T16:57:19.230Z,1.00
2023-05-14T16:59:46.288Z,1.00
2023-05-14T17:02:12.857Z,99.90
2023-05-14T17:04:42.231Z,1.00
2023-05-14T17:07:09.059Z,99.90
2023-05-14T17:09:35.584Z,99.90
2023-05-14T17:12:02.090Z,1.00
2023-05-14T17:14:28.728Z,1.00
2023-05-14T17:16:55.439Z,99.90
2023-05-14T17:19:21.954Z,1.00
2023-05-14T17:21:49.453Z,1.00
2023-05-14T17:24:15.968Z,1.00
2023-05-14T17:26:42.486Z,1.00
2023-05-14T17:29:09.032Z,99.90
2023-05-14T17:31:35.833Z,1.00
2023-05-14T17:34:02.523Z,96.00
2023-05-14T17:36:29.174Z,99.90
2023-05-14T17:38:55.738Z,1.00
2023-05-14T17:41:22.221Z,99.90
2023-05-14T17:43:48.712Z,1.00
2023-05-14T17:46:15.879Z,1.00
2023-05-14T17:48:42.478Z,1.00
2023-05-14T17:51:09.017Z,1.00
2023-05-14T17:53:35.653Z,48.10
2023-05-14T17:56:02.467Z,99.90
2023-05-14T17:58:29.041Z,27.40
2023-05-14T18:00:55.626Z,62.60
2023-05-14T18:03:22.417Z,89.40
2023-05-14T18:05:49.091Z,99.90
2023-05-14T18:08:15.710Z,99.90
2023-05-14T18:10:42.200Z,99.90
2023-05-14T18:13:08.707Z,1.00
2023-05-14T18:15:35.897Z,1.00
2023-05-14T18:18:02.500Z,1.00
2023-05-14T18:20:29.109Z,1.00
2023-05-14T18:22:55.653Z,99.90
2023-05-14T18:25:22.500Z,99.90
2023-05-14T18:27:49.280Z,99.90
2023-05-14T18:30:16.036Z,99.90
2023-05-14T18:32:43.959Z,99.90
2023-05-14T18:35:11.648Z,99.90
2023-05-14T18:37:38.193Z,99.90
2023-05-14T18:40:05.172Z,99.90
2023-05-14T18:42:31.692Z,99.90
2023-05-14T18:44:59.215Z,99.90
2023-05-14T18:47:25.924Z,99.90
2023-05-14T18:49:55.193Z,99.90
2023-05-14T18:52:24.679Z,99.90
2023-05-14T18:54:51.201Z,99.90
2023-05-14T18:57:18.500Z,99.90
2023-05-14T18:59:45.089Z,99.90
2023-05-14T19:02:11.674Z,99.90
2023-05-14T19:04:50.761Z,99.90
2023-05-14T19:07:18.807Z,1.00
2023-05-14T19:09:45.397Z,1.00
2023-05-14T19:12:13.813Z,1.00
2023-05-14T19:14:40.402Z,1.00
2023-05-14T19:17:07.283Z,1.00
2023-05-14T19:19:33.774Z,1.00
2023-05-14T19:22:00.585Z,1.00
2023-05-14T19:24:27.165Z,1.00
2023-05-14T19:26:53.839Z,1.00
2023-05-14T19:29:20.362Z,99.90
2023-05-14T19:31:47.290Z,99.90
2023-05-14T19:34:13.838Z,99.90
2023-05-14T19:36:41.566Z,99.90
2023-05-14T19:39:08.114Z,99.90
2023-05-14T19:41:35.650Z,99.90
2023-05-14T19:44:02.169Z,99.90
2023-05-14T19:46:28.896Z,1.00
2023-05-14T19:48:55.477Z,1.00
2023-05-14T19:51:22.007Z,1.00
2023-05-14T19:53:48.512Z,1.00
2023-05-14T19:56:15.511Z,1.00
2023-05-14T19:58:42.194Z,1.00
2023-05-14T20:01:09.220Z,1.00
2023-05-14T20:03:35.852Z,1.00
2023-05-14T20:06:02.450Z,1.00
2023-05-14T20:08:29.154Z,1.00
2023-05-14T20:10:55.766Z,1.00
2023-05-14T20:13:24.479Z,1.00
2023-05-14T20:15:52.534Z,1.00
2023-05-14T20:18:19.351Z,1.00
2023-05-14T20:20:45.888Z,1.00
2023-05-14T20:23:12.445Z,1.00
2023-05-14T20:25:38.931Z,99.90
2023-05-14T20:28:05.595Z,99.90
2023-05-14T20:30:32.571Z,99.90
2023-05-14T20:32:59.586Z,99.90
2023-05-14T20:35:26.525Z,99.90
2023-05-14T20:37:53.310Z,99.90
2023-05-14T20:40:20.754Z,99.90
2023-05-14T20:42:47.304Z,99.90
2023-05-14T20:45:13.892Z,99.90
2023-05-14T20:47:40.516Z,99.90
2023-05-14T20:50:07.599Z,99.90
2023-05-14T20:52:34.179Z,28.70
2023-05-14T20:55:02.127Z,16.70
2023-05-14T20:57:29.107Z,99.90
2023-05-14T20:59:55.638Z,99.90
2023-05-14T21:02:22.336Z,99.90
2023-05-14T21:04:52.333Z,99.90
2023-05-14T21:07:18.981Z,99.90
2023-05-14T21:09:50.802Z,99.90
2023-05-14T21:12:17.529Z,99.90
2023-05-14T21:14:44.105Z,1.00
2023-05-14T21:17:10.673Z,1.00
2023-05-14T21:19:37.409Z,1.00
2023-05-14T21:22:03.967Z,1.00
2023-05-14T21:24:30.488Z,1.00
2023-05-14T21:26:57.044Z,1.00
2023-05-14T21:29:24.354Z,1.00
2023-05-14T21:31:50.981Z,1.00
2023-05-14T21:34:17.556Z,1.00
2023-05-14T21:36:44.138Z,1.00
2023-05-14T21:39:10.635Z,1.00
2023-05-14T21:41:37.181Z,1.00
2023-05-14T21:44:03.737Z,1.00
2023-05-14T21:46:30.570Z,1.00
2023-05-14T21:48:57.138Z,1.00
2023-05-14T21:51:23.895Z,1.00
2023-05-14T21:53:50.418Z,1.00
2023-05-14T21:56:16.976Z,1.00
2023-05-14T21:58:44.136Z,99.90
2023-05-14T22:04:02.352Z,99.90
2023-05-14T22:06:29.047Z,1.00
2023-05-14T22:08:55.669Z,61.70
2023-05-14T22:11:22.346Z,99.90
2023-05-14T22:13:48.842Z,99.90
2023-05-14T22:16:15.388Z,1.00
2023-05-14T22:18:42.557Z,61.70
2023-05-14T22:21:09.149Z,99.90
2023-05-14T22:23:36.135Z,99.90
2023-05-14T22:26:02.771Z,1.00
2023-05-14T22:28:29.355Z,1.00
2023-05-14T22:30:56.549Z,1.00
2023-05-14T22:33:23.236Z,1.00
2023-05-14T22:35:49.784Z,1.00
2023-05-14T22:38:16.301Z,1.00
2023-05-14T22:40:42.835Z,44.50
2023-05-14T22:43:09.339Z,99.90
2023-05-14T22:45:35.952Z,1.00
2023-05-14T22:48:02.506Z,1.00
2023-05-14T22:50:29.069Z,1.00
2023-05-14T22:52:55.573Z,1.00
2023-05-14T22:55:22.151Z,1.00
2023-05-14T22:57:48.677Z,48.50
2023-05-14T23:00:15.831Z,1.00
2023-05-14T23:02:42.470Z,1.00
2023-05-14T23:05:09.228Z,1.00
2023-05-14T23:07:35.760Z,1.00
2023-05-14T23:10:06.353Z,1.00
2023-05-14T23:12:33.530Z,1.00
2023-05-14T23:15:00.076Z,99.90
2023-05-14T23:17:26.830Z,1.00
2023-05-14T23:19:53.451Z,1.00
2023-05-14T23:22:20.280Z,1.00
2023-05-14T23:24:46.789Z,1.00
2023-05-14T23:27:13.277Z,1.00
2023-05-14T23:29:39.779Z,1.00
2023-05-14T23:32:06.652Z,99.90
2023-05-14T23:34:33.191Z,99.90
2023-05-14T23:36:59.775Z,99.90
2023-05-14T23:39:26.686Z,99.90
2023-05-14T23:41:53.203Z,99.90
2023-05-14T23:44:19.763Z,99.90
2023-05-14T23:46:46.461Z,99.90
2023-05-14T23:49:13.019Z,99.90
2023-05-14T23:51:39.571Z,99.90
2023-05-14T23:54:06.094Z,1.00
2023-05-14T23:56:33.564Z,1.00
2023-05-14T23:59:00.252Z,1.00
